Time;durP1;ratioP1;P1;durP2;ratioP2;P2;SDS_P1;SDS_P2;PMS_P1;PMS_P2;Temp;Humidity;BMP_temperature;BMP_pressure;BME280_temperature;BME280_humidity;BME280_pressure;Samples;Min_cycle;Max_cycle;Signal;HPM_P1;HPM_P2
2022/01/10 00:02:08;;;;;;;12.23;3.88;;;3.30;99.90;;;;;;5109977;28;20143;-84
2022/01/10 00:04:34;;;;;;;21.38;4.35;;;3.30;99.90;;;;;;5109543;28;20028;-83
2022/01/10 00:06:59;;;;;;;16.08;4.40;;;3.20;99.90;;;;;;5108180;28;20034;-84
2022/01/10 00:09:25;;;;;;;15.45;3.63;;;3.20;99.90;;;;;;5091025;28;20044;-83
2022/01/10 00:11:51;;;;;;;13.57;3.42;;;3.20;99.90;;;;;;5074348;28;20046;-84
2022/01/10 00:14:16;;;;;;;21.45;4.00;;;3.10;99.90;;;;;;5109597;28;20035;-84
2022/01/10 00:16:42;;;;;;;16.38;3.85;;;3.10;99.90;;;;;;5108030;28;20166;-84
2022/01/10 00:19:08;;;;;;;17.65;3.63;;;3.10;99.90;;;;;;5074337;28;20043;-84
2022/01/10 00:21:34;;;;;;;20.48;3.72;;;3.00;99.90;;;;;;5107473;28;20132;-84
2022/01/10 00:23:59;;;;;;;15.38;3.85;;;3.00;99.90;;;;;;5091006;28;20119;-84
2022/01/10 00:26:26;;;;;;;16.25;3.03;;;3.00;99.90;;;;;;5107417;28;20495;-84
2022/01/10 00:28:51;;;;;;;14.30;4.13;;;2.90;99.90;;;;;;5107451;28;20035;-83
2022/01/10 00:31:18;;;;;;;17.38;3.80;;;2.90;99.90;;;;;;5108254;28;20066;-84
2022/01/10 00:33:43;;;;;;;18.40;3.78;;;2.90;99.90;;;;;;5073373;28;20676;-84
2022/01/10 00:36:09;;;;;;;13.00;3.05;;;4.30;99.90;;;;;;5090844;28;20047;-84
2022/01/10 00:38:35;;;;;;;28.75;3.47;;;2.90;99.90;;;;;;5107038;28;20567;-84
2022/01/10 00:41:01;;;;;;;19.17;3.92;;;2.80;99.90;;;;;;5090307;28;20225;-83
2022/01/10 00:43:32;;;;;;;19.13;3.47;;;2.90;99.90;;;;;;5090657;28;20131;-83
2022/01/10 00:45:59;;;;;;;15.20;3.67;;;2.80;99.90;;;;;;5107174;28;20608;-84
2022/01/10 00:48:25;;;;;;;25.00;3.67;;;2.90;99.90;;;;;;5090809;28;20035;-83
2022/01/10 00:50:50;;;;;;;19.00;3.47;;;2.80;99.90;;;;;;5072988;28;20456;-83
2022/01/10 00:53:16;;;;;;;16.88;3.10;;;4.10;99.90;;;;;;5074099;28;20096;-83
2022/01/10 00:55:42;;;;;;;14.13;2.70;;;2.80;99.90;;;;;;5107138;28;20075;-83
2022/01/10 00:58:08;;;;;;;19.90;2.97;;;2.70;99.90;;;;;;5106866;28;20446;-84
2022/01/10 01:00:33;;;;;;;22.20;3.28;;;2.70;99.90;;;;;;5089742;28;20082;-83
2022/01/10 01:02:59;;;;;;;18.02;2.90;;;2.70;99.90;;;;;;5073100;28;20053;-84
2022/01/10 01:05:26;;;;;;;14.18;3.58;;;2.60;99.90;;;;;;5090718;28;20032;-83
2022/01/10 01:07:53;;;;;;;13.05;2.67;;;2.60;99.90;;;;;;5090309;28;20040;-83
2022/01/10 01:13:02;;;;;;;22.50;2.90;;;2.70;99.90;;;;;;5106614;28;20130;-84
2022/01/10 01:15:32;;;;;;;12.02;2.75;;;3.30;99.90;;;;;;5090394;28;20562;-84
2022/01/10 01:26:02;;;;;;;8.20;2.50;;;2.40;99.90;;;;;;5106842;28;20051;-83
2022/01/10 01:28:28;;;;;;;22.52;2.97;;;2.40;99.90;;;;;;5106712;28;20114;-83
2022/01/10 01:30:54;;;;;;;23.33;3.50;;;0.60;99.90;;;;;;5089631;28;20054;-82
2022/01/10 01:33:20;;;;;;;11.75;2.65;;;2.40;99.90;;;;;;5106228;28;20139;-83
2022/01/10 01:35:47;;;;;;;18.50;2.80;;;2.40;99.90;;;;;;5089914;28;20048;-83
2022/01/10 01:38:14;;;;;;;14.05;2.47;;;2.40;99.90;;;;;;5089685;28;20342;-83
2022/01/10 01:40:47;;;;;;;15.13;2.95;;;2.30;99.90;;;;;;5089456;28;20122;-83
2022/01/10 01:43:13;;;;;;;10.45;2.65;;;2.30;99.90;;;;;;5090559;28;20051;-84
2022/01/10 01:45:41;;;;;;;16.85;2.55;;;2.30;99.90;;;;;;5089213;28;20558;-84
2022/01/10 01:48:07;;;;;;;15.45;2.72;;;2.20;99.90;;;;;;5105932;28;20081;-84
2022/01/10 01:50:34;;;;;;;14.15;2.30;;;2.20;99.90;;;;;;5088928;28;20079;-84
2022/01/10 01:53:00;;;;;;;19.13;3.95;;;2.20;99.90;;;;;;5106889;28;20036;-84
2022/01/10 01:55:26;;;;;;;21.30;2.72;;;2.20;99.90;;;;;;5089309;28;20096;-85
2022/01/10 01:57:51;;;;;;;17.98;3.20;;;3.90;99.90;;;;;;5089084;28;20200;-85
2022/01/10 02:00:22;;;;;;;14.80;3.03;;;2.20;99.90;;;;;;5105927;28;20039;-84
2022/01/10 02:02:49;;;;;;;25.92;3.25;;;2.20;99.90;;;;;;5072861;28;20039;-84
2022/01/10 02:05:14;;;;;;;20.52;3.25;;;2.20;99.90;;;;;;5089524;28;20048;-85
2022/01/10 02:07:40;;;;;;;19.42;3.42;;;2.20;99.90;;;;;;5106204;28;20046;-84
2022/01/10 02:10:07;;;;;;;15.82;3.13;;;2.20;99.90;;;;;;5089884;28;20048;-84
2022/01/10 02:12:32;;;;;;;15.82;3.08;;;2.20;99.90;;;;;;5105851;28;20079;-85
2022/01/10 02:14:58;;;;;;;19.35;3.72;;;2.10;99.90;;;;;;5089289;28;20147;-84
2022/01/10 02:17:33;;;;;;;14.02;3.50;;;2.10;99.90;;;;;;5106133;28;20127;-85
2022/01/10 02:20:04;;;;;;;14.25;3.05;;;2.10;99.90;;;;;;5106175;28;20055;-85
2022/01/10 02:22:30;;;;;;;16.42;4.10;;;2.10;99.90;;;;;;5106216;28;20040;-85
2022/01/10 02:24:55;;;;;;;18.30;3.30;;;2.10;99.90;;;;;;5105605;28;20051;-84
2022/01/10 02:27:23;;;;;;;17.98;2.83;;;2.10;99.90;;;;;;5089225;28;20051;-85
2022/01/10 02:29:48;;;;;;;17.30;3.20;;;2.20;99.90;;;;;;5088385;28;20406;-84
2022/01/10 02:32:15;;;;;;;17.70;2.97;;;2.10;99.90;;;;;;5084915;28;20058;-85
2022/01/10 02:34:42;;;;;;;14.48;3.42;;;2.10;99.90;;;;;;5068598;28;20052;-85
2022/01/10 02:37:07;;;;;;;18.95;3.50;;;2.00;99.90;;;;;;5068448;28;20044;-85
2022/01/10 02:39:34;;;;;;;12.48;3.42;;;2.00;99.90;;;;;;5085521;28;20067;-85
2022/01/10 02:41:59;;;;;;;16.88;3.47;;;2.00;99.90;;;;;;5085024;28;20079;-84
2022/01/10 02:44:25;;;;;;;15.20;3.35;;;2.00;99.90;;;;;;5069407;28;20071;-84
2022/01/10 02:46:51;;;;;;;20.42;3.65;;;2.00;99.90;;;;;;5085341;28;20495;-85
2022/01/10 02:49:26;;;;;;;14.18;3.08;;;2.00;99.90;;;;;;5068323;28;20036;-85
2022/01/10 02:51:53;;;;;;;18.13;3.78;;;2.00;99.90;;;;;;5085806;28;20490;-84
2022/01/10 02:54:22;;;;;;;13.23;3.20;;;2.00;99.90;;;;;;5085268;28;20048;-84
2022/01/10 02:56:51;;;;;;;16.92;3.38;;;1.90;99.90;;;;;;5069235;28;20075;-84
2022/01/10 02:59:17;;;;;;;21.50;3.45;;;1.90;99.90;;;;;;5085801;28;20044;-84
2022/01/10 03:01:43;;;;;;;19.40;3.33;;;1.90;99.90;;;;;;5055516;28;20260;-84
2022/01/10 03:04:10;;;;;;;13.05;3.40;;;1.90;99.90;;;;;;5088716;28;20072;-85
2022/01/10 03:06:37;;;;;;;15.23;4.10;;;1.80;99.90;;;;;;5088779;28;20051;-84
2022/01/10 03:09:05;;;;;;;13.40;3.53;;;1.80;99.90;;;;;;5088587;28;20127;-85
2022/01/10 03:11:35;;;;;;;13.23;3.50;;;1.80;99.90;;;;;;5088602;28;20043;-84
2022/01/10 03:14:01;;;;;;;13.18;3.28;;;1.80;99.90;;;;;;5089823;28;20040;-84
2022/01/10 03:16:27;;;;;;;11.30;4.35;;;1.80;99.90;;;;;;5071865;28;20459;-83
2022/01/10 03:18:53;;;;;;;8.90;3.70;;;3.70;99.90;;;;;;5071865;28;20164;-84
2022/01/10 03:21:21;;;;;;;15.35;4.40;;;1.80;99.90;;;;;;5071935;28;20043;-85
2022/01/10 03:23:48;;;;;;;28.23;4.03;;;1.70;99.90;;;;;;5088309;28;20102;-84
2022/01/10 03:26:14;;;;;;;32.95;4.28;;;1.90;99.90;;;;;;5088430;28;20044;-84
2022/01/10 03:28:40;;;;;;;20.40;4.20;;;1.70;99.90;;;;;;5071417;28;20341;-84
2022/01/10 03:31:06;;;;;;;9.43;3.60;;;1.70;99.90;;;;;;5071914;28;20249;-84
2022/01/10 03:33:32;;;;;;;19.30;3.72;;;1.70;99.90;;;;;;5102111;28;20085;-84
2022/01/10 03:35:57;;;;;;;13.75;4.13;;;1.70;99.90;;;;;;5091934;28;20126;-84
2022/01/10 03:38:23;;;;;;;22.02;4.57;;;1.70;99.90;;;;;;5074518;28;20051;-85
2022/01/10 03:40:49;;;;;;;17.30;4.38;;;1.70;99.90;;;;;;5091824;28;20136;-84
2022/01/10 03:43:14;;;;;;;13.32;3.65;;;1.70;99.90;;;;;;5108775;28;20050;-84
2022/01/10 03:45:40;;;;;;;23.80;5.07;;;1.70;99.90;;;;;;5108370;28;20042;-84
2022/01/10 03:48:06;;;;;;;21.83;3.50;;;1.70;99.90;;;;;;5091842;28;20051;-84
2022/01/10 03:50:32;;;;;;;20.58;4.47;;;1.70;99.90;;;;;;5074171;28;20043;-84
2022/01/10 03:52:57;;;;;;;15.32;4.00;;;1.70;99.90;;;;;;5108857;28;20065;-84
2022/01/10 03:55:23;;;;;;;15.55;4.10;;;1.70;99.90;;;;;;5109871;28;20458;-84
2022/01/10 03:57:49;;;;;;;11.77;3.97;;;1.70;99.90;;;;;;5091061;28;20069;-85
2022/01/10 04:00:15;;;;;;;15.15;4.50;;;1.60;99.90;;;;;;5091225;28;20039;-83
2022/01/10 04:02:48;;;;;;;19.17;5.05;;;1.70;99.90;;;;;;5091078;28;20551;-84
2022/01/10 04:05:14;;;;;;;21.02;4.38;;;1.70;99.90;;;;;;5093284;28;20603;-84
2022/01/10 04:07:40;;;;;;;18.35;5.13;;;1.70;99.90;;;;;;5107939;28;20040;-84
2022/01/10 04:10:06;;;;;;;16.77;4.65;;;1.60;99.90;;;;;;5091192;28;20043;-85
2022/01/10 04:12:31;;;;;;;17.77;5.32;;;1.60;99.90;;;;;;5107411;28;20043;-85
2022/01/10 04:14:57;;;;;;;26.98;5.47;;;1.60;99.90;;;;;;5108010;28;20100;-84
2022/01/10 04:17:23;;;;;;;18.60;4.93;;;1.50;99.90;;;;;;5091256;28;20116;-85
2022/01/10 04:19:48;;;;;;;22.17;5.15;;;1.60;99.90;;;;;;5090709;28;20479;-84
2022/01/10 04:22:14;;;;;;;10.57;4.95;;;1.50;99.90;;;;;;5074428;28;20144;-83
2022/01/10 04:24:40;;;;;;;18.25;4.43;;;1.50;99.90;;;;;;5109261;28;20043;-84
2022/01/10 04:27:05;;;;;;;20.75;5.15;;;1.50;99.90;;;;;;5090950;28;20092;-84
2022/01/10 04:29:31;;;;;;;32.08;5.13;;;1.50;99.90;;;;;;5073750;28;20116;-84
2022/01/10 04:31:57;;;;;;;16.70;4.75;;;1.40;99.90;;;;;;5107350;28;20083;-84
2022/01/10 04:34:23;;;;;;;17.23;5.43;;;1.40;99.90;;;;;;5073524;28;20058;-84
2022/01/10 04:36:48;;;;;;;22.10;6.07;;;1.40;99.90;;;;;;5107233;28;20464;-84
2022/01/10 04:39:14;;;;;;;17.38;6.18;;;1.40;99.90;;;;;;5107633;28;20036;-84
2022/01/10 04:41:40;;;;;;;17.48;5.75;;;1.50;99.90;;;;;;5107290;28;20044;-84
2022/01/10 04:44:07;;;;;;;24.83;5.25;;;1.40;99.90;;;;;;5107731;28;20104;-84
2022/01/10 04:46:33;;;;;;;13.77;6.15;;;1.40;99.90;;;;;;5107415;28;20081;-84
2022/01/10 04:49:00;;;;;;;16.70;5.28;;;1.30;99.90;;;;;;5106848;28;20104;-85
2022/01/10 04:51:28;;;;;;;19.27;5.75;;;1.30;99.90;;;;;;5090333;28;20067;-85
2022/01/10 04:53:55;;;;;;;21.83;6.43;;;1.20;99.90;;;;;;5107074;28;20136;-85
2022/01/10 04:56:21;;;;;;;12.23;5.32;;;1.20;99.90;;;;;;5057432;28;20180;-85
2022/01/10 04:58:48;;;;;;;20.75;6.78;;;1.20;99.90;;;;;;5089827;28;20608;-85
2022/01/10 05:01:15;;;;;;;17.63;6.70;;;1.20;99.90;;;;;;5090467;28;20035;-85
2022/01/10 05:03:41;;;;;;;16.02;5.93;;;1.20;99.90;;;;;;5106707;28;20046;-85
2022/01/10 05:06:06;;;;;;;20.75;5.78;;;1.20;99.90;;;;;;5089858;28;20052;-85
2022/01/10 05:08:32;;;;;;;22.83;6.70;;;2.40;99.90;;;;;;5106687;28;20036;-85
2022/01/10 05:10:58;;;;;;;14.38;6.18;;;1.20;99.90;;;;;;5106709;28;20043;-85
2022/01/10 05:13:25;;;;;;;20.95;6.80;;;1.20;99.90;;;;;;5107511;28;20073;-85
2022/01/10 05:15:51;;;;;;;14.60;5.72;;;1.20;99.90;;;;;;5089935;28;20039;-85
2022/01/10 05:18:20;;;;;;;19.63;7.03;;;1.20;99.90;;;;;;5107201;28;20096;-84
2022/01/10 05:20:47;;;;;;;34.85;7.45;;;1.20;99.90;;;;;;5107089;28;20378;-84
2022/01/10 05:23:13;;;;;;;20.15;6.90;;;2.20;99.90;;;;;;5105483;28;20043;-84
2022/01/10 05:25:40;;;;;;;17.85;7.43;;;1.20;99.90;;;;;;5089373;28;20038;-84
2022/01/10 05:28:11;;;;;;;24.65;8.18;;;1.20;99.90;;;;;;5073048;28;20081;-84
2022/01/10 05:30:39;;;;;;;28.65;6.63;;;1.20;99.90;;;;;;5089734;28;20491;-84
2022/01/10 05:33:07;;;;;;;21.88;7.47;;;1.20;99.90;;;;;;5089211;28;20043;-85
2022/01/10 05:35:34;;;;;;;20.10;7.47;;;2.30;99.90;;;;;;5107135;28;20477;-87
2022/01/10 05:38:00;;;;;;;13.70;6.95;;;1.10;99.90;;;;;;5089693;28;20122;-85
2022/01/10 05:40:25;;;;;;;20.25;7.45;;;1.20;99.90;;;;;;5106036;28;20131;-84
2022/01/10 05:42:51;;;;;;;21.98;6.78;;;1.20;99.90;;;;;;5089334;28;20035;-84
2022/01/10 05:45:17;;;;;;;18.40;7.80;;;1.20;99.90;;;;;;5107894;28;20031;-84
2022/01/10 05:47:45;;;;;;;16.80;6.65;;;1.10;99.90;;;;;;5106615;28;20532;-85
2022/01/10 05:50:13;;;;;;;19.67;6.70;;;1.10;99.90;;;;;;5105887;28;20048;-85
2022/01/10 05:52:38;;;;;;;21.23;7.32;;;1.00;99.90;;;;;;5107019;28;20044;-85
2022/01/10 05:55:06;;;;;;;36.42;9.00;;;1.00;99.90;;;;;;5106018;28;20449;-85
2022/01/10 05:57:31;;;;;;;18.52;8.07;;;1.00;99.90;;;;;;5106325;28;20046;-83
2022/01/10 05:59:57;;;;;;;28.77;9.02;;;1.00;99.90;;;;;;5070478;28;20429;-83
2022/01/10 06:02:23;;;;;;;27.63;8.07;;;1.00;99.90;;;;;;5105351;28;20120;-84
2022/01/10 06:04:49;;;;;;;19.02;9.02;;;1.00;99.90;;;;;;5072013;28;20487;-82
2022/01/10 06:07:15;;;;;;;23.63;8.38;;;1.00;99.90;;;;;;5105807;28;20387;-86
2022/01/10 06:09:41;;;;;;;24.73;8.82;;;-0.80;99.90;;;;;;5089467;28;20047;-81
2022/01/10 06:12:07;;;;;;;22.13;9.77;;;1.00;99.90;;;;;;5105784;28;20040;-82
2022/01/10 06:14:32;;;;;;;27.30;9.73;;;0.90;99.90;;;;;;5089242;28;20404;-84
2022/01/10 06:16:58;;;;;;;29.15;10.05;;;0.90;99.90;;;;;;5105577;28;20040;-84
2022/01/10 06:19:24;;;;;;;25.48;9.68;;;2.70;99.90;;;;;;5072084;28;20379;-84
2022/01/10 06:21:49;;;;;;;29.88;9.27;;;0.90;99.90;;;;;;5089201;28;20036;-85
2022/01/10 06:24:15;;;;;;;23.63;9.38;;;0.90;99.90;;;;;;5071957;28;20043;-85
2022/01/10 06:26:41;;;;;;;21.27;9.88;;;0.80;99.90;;;;;;5106197;28;20130;-84
2022/01/10 06:29:07;;;;;;;20.45;9.90;;;0.80;99.90;;;;;;5105706;28;20059;-84
2022/01/10 06:31:32;;;;;;;21.17;9.45;;;0.80;99.90;;;;;;5088787;28;20047;-84
2022/01/10 06:33:58;;;;;;;26.85;9.73;;;0.70;99.90;;;;;;5105672;28;20058;-84
2022/01/10 06:36:24;;;;;;;24.17;11.18;;;0.70;99.90;;;;;;5111415;28;20074;-86
2022/01/10 06:38:50;;;;;;;26.80;10.82;;;0.70;99.90;;;;;;5109885;28;20044;-85
2022/01/10 06:41:15;;;;;;;26.73;10.57;;;0.80;99.90;;;;;;5092537;28;20055;-85
2022/01/10 06:43:41;;;;;;;25.08;11.20;;;0.80;99.90;;;;;;5110530;28;20451;-85
2022/01/10 06:46:07;;;;;;;29.25;12.00;;;0.80;99.90;;;;;;5092804;28;20058;-84
2022/01/10 06:48:33;;;;;;;37.53;11.93;;;0.80;99.90;;;;;;5110667;28;20673;-85
2022/01/10 06:50:59;;;;;;;27.35;11.52;;;0.90;99.90;;;;;;5110832;28;20043;-85
2022/01/10 06:53:24;;;;;;;25.50;11.18;;;0.90;99.90;;;;;;5111232;28;20048;-86
2022/01/10 06:55:50;;;;;;;29.02;10.55;;;2.90;99.90;;;;;;5092517;28;20395;-86
2022/01/10 06:58:16;;;;;;;33.00;11.48;;;0.90;99.90;;;;;;5092197;28;20101;-85
2022/01/10 07:00:43;;;;;;;32.22;11.70;;;0.80;99.90;;;;;;5109772;28;20044;-84
2022/01/10 07:03:09;;;;;;;21.80;10.35;;;0.80;99.90;;;;;;5108929;28;20044;-85
2022/01/10 07:05:35;;;;;;;35.13;12.15;;;0.80;99.90;;;;;;5075407;28;20126;-85
2022/01/10 07:08:01;;;;;;;23.00;11.18;;;0.90;99.90;;;;;;5092121;28;20083;-86
2022/01/10 07:10:26;;;;;;;25.20;11.07;;;0.80;99.90;;;;;;5109031;28;20054;-85
2022/01/10 07:12:53;;;;;;;28.70;11.63;;;0.80;99.90;;;;;;5109486;28;20126;-85
2022/01/10 07:15:19;;;;;;;22.98;11.82;;;0.80;99.90;;;;;;5108874;28;20036;-86
2022/01/10 07:17:44;;;;;;;30.35;12.60;;;0.80;99.90;;;;;;5075681;28;20046;-85
2022/01/10 07:20:10;;;;;;;27.73;11.75;;;0.90;99.90;;;;;;5110291;28;20046;-85
2022/01/10 07:22:36;;;;;;;28.52;11.80;;;0.90;99.90;;;;;;5110633;28;20047;-85
2022/01/10 07:25:03;;;;;;;40.22;13.07;;;0.90;99.90;;;;;;5108827;28;20036;-84
2022/01/10 07:27:28;;;;;;;29.38;12.45;;;0.80;99.90;;;;;;5108634;28;20495;-84
2022/01/10 07:29:54;;;;;;;35.45;13.18;;;0.80;99.90;;;;;;5108829;28;20049;-85
2022/01/10 07:32:20;;;;;;;28.85;13.25;;;0.80;99.90;;;;;;5110595;27;20078;-85
2022/01/10 07:34:46;;;;;;;28.13;12.85;;;0.80;99.90;;;;;;5130709;27;20406;-85
2022/01/10 07:37:12;;;;;;;36.95;12.60;;;0.90;99.90;;;;;;5112009;27;20474;-85
2022/01/10 07:39:38;;;;;;;28.10;13.07;;;0.90;99.90;;;;;;5094982;27;20131;-84
2022/01/10 07:42:04;;;;;;;30.95;12.48;;;1.30;99.90;;;;;;5094970;27;20112;-85
2022/01/10 07:44:30;;;;;;;34.60;14.55;;;0.80;99.90;;;;;;5112064;27;20479;-85
2022/01/10 07:46:56;;;;;;;28.52;12.45;;;0.80;99.90;;;;;;5093655;27;20035;-84
2022/01/10 07:49:21;;;;;;;29.27;13.18;;;0.80;99.90;;;;;;5111625;27;20047;-84
2022/01/10 07:51:47;;;;;;;34.15;12.85;;;0.80;99.90;;;;;;5112254;27;20131;-85
2022/01/10 07:54:13;;;;;;;31.98;13.32;;;0.80;99.90;;;;;;5111508;27;20066;-85
2022/01/10 07:56:39;;;;;;;42.53;13.88;;;0.80;99.90;;;;;;5078461;27;20077;-84
2022/01/10 07:59:05;;;;;;;34.25;14.27;;;0.70;99.90;;;;;;5111487;27;20408;-85
2022/01/10 08:01:31;;;;;;;32.88;13.40;;;0.70;99.90;;;;;;5077868;27;20039;-85
2022/01/10 08:03:57;;;;;;;38.50;13.45;;;0.70;99.90;;;;;;5094246;27;20043;-85
2022/01/10 08:06:23;;;;;;;36.10;13.00;;;0.80;99.90;;;;;;5111249;27;20047;-85
2022/01/10 08:08:49;;;;;;;37.17;15.98;;;0.70;99.90;;;;;;5077875;27;20471;-85
2022/01/10 08:11:15;;;;;;;32.75;15.10;;;1.10;99.90;;;;;;5111170;27;20046;-85
2022/01/10 08:13:41;;;;;;;29.08;13.70;;;0.80;99.90;;;;;;5111817;27;20039;-85
2022/01/10 08:16:07;;;;;;;28.92;13.10;;;0.70;99.90;;;;;;5093644;27;20053;-85
2022/01/10 08:18:34;;;;;;;36.53;14.85;;;0.80;99.90;;;;;;5093824;27;20054;-85
2022/01/10 08:21:01;;;;;;;32.97;15.25;;;0.70;99.90;;;;;;5076881;27;20050;-85
2022/01/10 08:23:27;;;;;;;42.00;15.23;;;0.70;99.90;;;;;;5111505;27;20464;-85
2022/01/10 08:25:53;;;;;;;41.30;15.00;;;1.00;99.90;;;;;;5110217;27;20124;-85
2022/01/10 08:28:18;;;;;;;42.63;14.60;;;0.80;99.90;;;;;;5091597;27;20039;-86
2022/01/10 08:30:44;;;;;;;34.92;15.93;;;0.80;99.90;;;;;;5075362;27;20031;-85
2022/01/10 08:33:10;;;;;;;33.03;13.52;;;2.30;99.90;;;;;;5109080;27;20062;-85
2022/01/10 08:35:36;;;;;;;38.30;14.85;;;1.70;99.90;;;;;;5092727;27;20134;-85
2022/01/10 08:38:02;;;;;;;33.13;14.88;;;0.80;99.90;;;;;;5093096;27;20035;-85
2022/01/10 08:40:28;;;;;;;29.73;14.93;;;0.80;99.90;;;;;;5093489;27;20111;-85
2022/01/10 08:42:54;;;;;;;30.58;14.23;;;0.70;99.90;;;;;;5093192;27;20051;-85
2022/01/10 08:45:19;;;;;;;35.30;14.88;;;0.70;99.90;;;;;;5093298;27;20046;-85
2022/01/10 08:47:46;;;;;;;41.33;16.90;;;0.80;99.90;;;;;;5093181;27;20046;-85
2022/01/10 08:50:12;;;;;;;40.25;16.73;;;1.00;99.90;;;;;;5075570;27;20402;-85
2022/01/10 08:52:39;;;;;;;31.58;14.30;;;0.90;99.90;;;;;;5109263;27;20039;-85
2022/01/10 08:55:06;;;;;;;29.55;15.18;;;2.60;99.90;;;;;;5091958;27;20051;-85
2022/01/10 08:57:32;;;;;;;37.17;15.48;;;1.00;99.90;;;;;;5091883;27;20050;-84
2022/01/10 08:59:58;;;;;;;38.20;16.33;;;1.00;99.90;;;;;;5110263;27;20039;-84
2022/01/10 09:02:23;;;;;;;40.58;16.75;;;2.10;99.90;;;;;;5092989;27;20321;-84
2022/01/10 09:04:50;;;;;;;45.08;17.30;;;2.80;99.90;;;;;;5092970;27;20371;-84
2022/01/10 09:07:16;;;;;;;38.85;16.75;;;1.20;99.90;;;;;;5093154;27;20126;-84
2022/01/10 09:09:42;;;;;;;50.25;17.23;;;1.30;99.90;;;;;;5092158;27;20473;-84
2022/01/10 09:12:08;;;;;;;38.03;17.38;;;2.10;99.90;;;;;;5091882;27;20052;-84
2022/01/10 09:14:34;;;;;;;32.75;16.25;;;1.50;99.90;;;;;;5091107;27;20051;-84
2022/01/10 09:17:00;;;;;;;33.72;16.08;;;1.80;99.90;;;;;;5091200;27;20481;-84
2022/01/10 09:19:26;;;;;;;36.90;17.10;;;2.20;99.90;;;;;;5073941;27;20386;-84
2022/01/10 09:21:52;;;;;;;35.95;16.45;;;1.60;99.90;;;;;;5091865;27;20039;-84
2022/01/10 09:24:18;;;;;;;39.30;17.17;;;1.70;99.90;;;;;;5074620;27;20156;-84
2022/01/10 09:26:44;;;;;;;37.38;16.13;;;1.80;99.90;;;;;;5074616;27;20047;-84
2022/01/10 09:29:09;;;;;;;40.67;17.80;;;0.40;99.90;;;;;;5074165;27;20140;-84
2022/01/10 09:31:35;;;;;;;25.02;14.95;;;3.40;99.90;;;;;;5109863;27;20036;-84
2022/01/10 09:34:02;;;;;;;41.40;16.85;;;1.90;99.90;;;;;;5109684;27;20112;-84
2022/01/10 09:36:31;;;;;;;37.17;16.92;;;2.00;99.90;;;;;;5093142;27;20078;-84
2022/01/10 09:38:57;;;;;;;36.97;17.23;;;2.00;99.90;;;;;;5129187;27;20523;-83
2022/01/10 09:41:24;;;;;;;38.08;18.20;;;3.20;99.90;;;;;;5109917;27;20043;-84
2022/01/10 09:43:57;;;;;;;40.72;17.75;;;2.20;99.90;;;;;;5109740;27;20043;-84
2022/01/10 09:46:24;;;;;;;34.10;16.83;;;2.30;99.90;;;;;;5093082;27;20126;-84
2022/01/10 09:48:50;;;;;;;36.35;16.48;;;2.60;99.90;;;;;;5109516;27;20050;-83
2022/01/10 09:51:16;;;;;;;44.55;16.25;;;2.40;99.90;;;;;;5092808;27;20051;-83
2022/01/10 09:53:42;;;;;;;51.05;18.67;;;2.50;99.90;;;;;;5109514;28;20056;-84
2022/01/10 09:56:08;;;;;;;49.67;19.02;;;2.60;99.90;;;;;;5076656;28;20043;-83
2022/01/10 09:58:34;;;;;;;42.97;18.70;;;2.60;99.90;;;;;;5092314;27;20068;-83
2022/01/10 10:01:01;;;;;;;38.80;17.80;;;2.70;99.90;;;;;;5109490;27;20047;-83
2022/01/10 10:03:27;;;;;;;41.80;18.10;;;2.80;99.90;;;;;;5109361;28;20065;-84
2022/01/10 10:05:54;;;;;;;37.55;16.35;;;4.50;99.90;;;;;;5092567;28;20055;-84
2022/01/10 10:08:26;;;;;;;40.95;16.40;;;3.00;99.90;;;;;;5109403;27;20043;-82
2022/01/10 10:10:52;;;;;;;40.60;17.10;;;3.10;99.90;;;;;;5112826;27;20047;-83
2022/01/10 10:13:19;;;;;;;33.35;17.75;;;3.20;99.90;;;;;;5113953;27;20512;-83
2022/01/10 10:15:46;;;;;;;43.35;18.52;;;3.50;99.90;;;;;;5113729;27;20035;-83
2022/01/10 10:18:13;;;;;;;45.75;17.58;;;3.40;99.90;;;;;;5097008;27;20082;-83
2022/01/10 10:20:41;;;;;;;42.65;16.27;;;3.50;99.90;;;;;;5079799;27;20418;-83
2022/01/10 10:23:13;;;;;;;41.70;17.23;;;3.60;99.90;;;;;;5096490;27;20128;-83
2022/01/10 10:25:45;;;;;;;40.53;17.60;;;3.60;99.90;;;;;;5097324;27;20702;-84
2022/01/10 10:28:13;;;;;;;38.10;17.05;;;3.80;99.90;;;;;;5113469;27;20035;-83
2022/01/10 10:30:39;;;;;;;35.70;18.17;;;4.80;99.90;;;;;;5113537;27;20065;-83
2022/01/10 10:33:23;;;;;;;39.75;17.35;;;4.20;99.90;;;;;;5112878;27;20490;-83
2022/01/10 10:36:03;;;;;;;32.72;16.40;;;4.00;99.90;;;;;;5113154;27;20503;-82
2022/01/10 10:38:29;;;;;;;36.10;15.25;;;5.30;99.90;;;;;;5096032;27;20200;-83
2022/01/10 10:41:00;;;;;;;33.90;15.93;;;4.30;99.90;;;;;;5112556;27;20047;-83
2022/01/10 10:43:25;;;;;;;40.05;15.93;;;4.40;99.90;;;;;;5113194;27;20080;-83
2022/01/10 10:45:51;;;;;;;34.65;15.23;;;4.80;99.90;;;;;;5095961;27;20137;-83
2022/01/10 10:48:17;;;;;;;32.75;15.48;;;4.50;99.90;;;;;;5112141;27;20043;-83
2022/01/10 10:50:45;;;;;;;33.58;15.02;;;4.70;99.90;;;;;;5095803;27;20051;-83
2022/01/10 10:53:14;;;;;;;35.70;14.00;;;4.70;99.90;;;;;;5111929;27;20082;-83
2022/01/10 10:55:44;;;;;;;28.45;13.50;;;6.00;99.90;;;;;;5095910;27;20490;-84
2022/01/10 10:58:12;;;;;;;32.90;14.40;;;4.90;99.90;;;;;;5111754;27;20082;-85
2022/01/10 11:00:39;;;;;;;32.90;14.57;;;5.00;99.90;;;;;;5113562;27;20039;-85
2022/01/10 11:03:05;;;;;;;29.73;13.23;;;5.00;99.90;;;;;;5130085;27;20123;-85
2022/01/10 11:05:33;;;;;;;31.02;12.32;;;5.10;99.90;;;;;;5114241;27;20367;-86
2022/01/10 11:07:59;;;;;;;30.90;11.88;;;5.20;99.90;;;;;;5079316;27;20042;-86
2022/01/10 11:10:25;;;;;;;24.70;13.25;;;5.60;99.90;;;;;;5112464;27;20126;-86
2022/01/10 11:12:58;;;;;;;31.75;13.18;;;5.70;99.90;;;;;;5112063;27;20050;-86
2022/01/10 11:15:24;;;;;;;25.38;12.35;;;5.50;99.90;;;;;;5095029;27;20509;-86
2022/01/10 11:17:53;;;;;;;28.38;13.63;;;5.60;99.90;;;;;;5111826;27;20126;-86
2022/01/10 11:20:21;;;;;;;32.83;13.80;;;6.90;99.90;;;;;;5129243;27;20050;-86
2022/01/10 11:22:54;;;;;;;24.23;12.93;;;7.00;99.90;;;;;;5094545;27;20130;-86
2022/01/10 11:25:47;;;;;;;;;;;5.70;99.90;;;;;;5094263;27;20039;-86
2022/01/10 11:28:23;;;;;;;26.90;12.23;;;5.80;99.90;;;;;;5111397;27;20014;-86
2022/01/10 11:31:07;;;;;;;29.35;13.52;;;6.50;99.90;;;;;;5111747;27;20104;-86
2022/01/10 11:33:35;;;;;;;23.67;12.63;;;5.90;99.90;;;;;;5129121;27;20108;-87
2022/01/10 11:36:31;;;;;;;;;;;;;;;;;;;;;
2022/01/10 11:39:09;;;;;;;25.77;10.75;;;7.50;99.90;;;;;;5112345;27;20498;-86
2022/01/10 11:41:34;;;;;;;24.70;11.20;;;7.30;99.90;;;;;;5111588;27;20047;-87
2022/01/10 11:44:04;;;;;;;19.60;9.52;;;6.20;99.90;;;;;;5112803;27;20084;-86
2022/01/10 11:46:43;;;;;;;19.90;9.57;;;6.20;99.90;;;;;;5111872;27;20093;-87
2022/01/10 11:49:09;;;;;;;23.70;9.38;;;6.30;99.90;;;;;;5093225;27;20054;-87
2022/01/10 11:51:43;;;;;;;21.65;7.78;;;6.30;99.90;;;;;;5111543;27;20039;-87
2022/01/10 11:57:26;;;;;;;24.20;9.10;;;7.30;99.90;;;;;;5097917;27;20498;-87
2022/01/10 11:59:56;;;;;;;22.05;8.48;;;6.40;99.90;;;;;;5093304;27;20134;-88
2022/01/10 12:02:26;;;;;;;17.10;8.60;;;8.20;99.90;;;;;;5055814;27;20054;-87
2022/01/10 12:04:58;;;;;;;21.65;9.38;;;8.30;99.90;;;;;;5094812;27;20043;-87
2022/01/10 12:07:24;;;;;;;18.80;7.90;;;6.60;99.90;;;;;;5112108;27;20039;-89
2022/01/10 12:09:51;;;;;;;22.35;8.40;;;6.60;99.90;;;;;;5111818;27;20818;-87
2022/01/10 12:12:19;;;;;;;23.58;8.13;;;6.60;99.90;;;;;;5111876;27;20051;-87
2022/01/10 12:14:47;;;;;;;27.48;9.20;;;7.70;99.90;;;;;;5111403;27;20045;-87
2022/01/10 12:17:13;;;;;;;24.83;8.82;;;6.80;99.90;;;;;;5110905;27;20092;-87
2022/01/10 12:19:39;;;;;;;26.35;9.68;;;6.80;99.90;;;;;;5109513;27;20470;-88
2022/01/10 12:22:06;;;;;;;26.45;9.02;;;8.40;99.90;;;;;;5110443;27;20103;-87
2022/01/10 12:24:35;;;;;;;18.27;8.43;;;6.90;99.90;;;;;;5109218;27;20047;-88
2022/01/10 12:27:03;;;;;;;27.08;8.45;;;6.90;99.90;;;;;;5093120;27;20126;-88
2022/01/10 12:29:30;;;;;;;24.67;7.95;;;7.00;99.90;;;;;;5093928;27;20043;-89
2022/01/10 12:31:57;;;;;;;20.98;7.72;;;7.00;99.90;;;;;;5093581;27;20039;-88
2022/01/10 12:34:23;;;;;;;18.38;8.13;;;7.10;99.90;;;;;;5075772;27;20237;-88
2022/01/10 12:36:49;;;;;;;16.38;7.53;;;7.10;99.90;;;;;;5110444;27;20101;-88
2022/01/10 12:39:21;;;;;;;19.10;7.28;;;7.20;99.90;;;;;;5076693;27;20099;-88
2022/01/10 12:41:48;;;;;;;20.38;7.03;;;7.20;99.90;;;;;;5094200;27;20043;-88
2022/01/10 12:44:14;;;;;;;19.90;7.57;;;7.90;99.90;;;;;;5077181;27;20036;-88
2022/01/10 12:46:41;;;;;;;24.85;7.15;;;7.30;99.90;;;;;;5094314;27;20050;-87
2022/01/10 12:49:09;;;;;;;13.73;5.38;;;8.70;99.90;;;;;;5110617;27;20039;-88
2022/01/10 12:51:37;;;;;;;17.88;7.22;;;7.30;99.90;;;;;;5110484;27;20082;-89
2022/01/10 12:54:26;;;;;;;19.52;6.38;;;7.30;99.90;;;;;;5105172;27;20109;-87
2022/01/10 12:56:51;;;;;;;17.98;6.93;;;7.30;99.90;;;;;;5092263;27;20455;-88
2022/01/10 12:59:20;;;;;;;20.88;7.00;;;7.30;99.90;;;;;;5109250;27;20118;-88